createdAt,value
2018-05-03T00:02:07.844Z,3.50
2018-05-03T00:04:42.964Z,4.20
2018-05-03T00:07:19.743Z,3.97
2018-05-03T00:09:54.970Z,3.47
2018-05-03T00:12:30.328Z,3.50
2018-05-03T00:15:05.571Z,4.40
2018-05-03T00:17:40.732Z,3.70
2018-05-03T00:20:15.946Z,3.60
2018-05-03T00:22:51.261Z,3.87
2018-05-03T00:25:26.658Z,3.00
2018-05-03T00:28:02.686Z,3.10
2018-05-03T00:30:38.130Z,3.67
2018-05-03T00:33:13.307Z,4.17
2018-05-03T00:35:48.576Z,4.20
2018-05-03T00:38:23.835Z,4.63
2018-05-03T00:40:59.102Z,4.53
2018-05-03T00:43:34.571Z,4.63
2018-05-03T00:46:10.527Z,5.10
2018-05-03T00:48:45.915Z,4.60
2018-05-03T00:51:21.267Z,4.40
2018-05-03T00:53:56.402Z,4.50
2018-05-03T00:56:32.366Z,4.27
2018-05-03T00:59:07.691Z,3.97
2018-05-03T01:01:42.966Z,4.27
2018-05-03T01:04:18.229Z,3.80
2018-05-03T01:06:53.561Z,4.30
2018-05-03T01:09:28.868Z,4.40
2018-05-03T01:12:04.208Z,4.50
2018-05-03T01:14:39.331Z,4.23
2018-05-03T01:17:14.559Z,4.40
2018-05-03T01:19:49.802Z,3.87
2018-05-03T01:22:26.068Z,4.20
2018-05-03T01:25:01.957Z,4.30
2018-05-03T01:27:37.081Z,4.10
2018-05-03T01:30:12.425Z,3.30
2018-05-03T01:32:47.758Z,4.00
2018-05-03T01:35:41.079Z,4.37
2018-05-03T01:38:16.999Z,4.40
2018-05-03T01:40:52.280Z,4.10
2018-05-03T01:43:27.456Z,5.00
2018-05-03T01:46:02.763Z,4.47
2018-05-03T01:48:37.921Z,4.43
2018-05-03T01:51:13.177Z,4.57
2018-05-03T01:53:48.599Z,4.10
2018-05-03T01:56:23.863Z,3.93
2018-05-03T01:58:59.111Z,3.80
2018-05-03T02:01:34.349Z,4.00
2018-05-03T02:04:09.666Z,4.50
2018-05-03T02:06:45.044Z,4.60
2018-05-03T02:09:20.982Z,4.17
2018-05-03T02:11:56.286Z,4.63
2018-05-03T02:14:31.443Z,3.50
2018-05-03T02:17:06.694Z,3.57
2018-05-03T02:19:42.065Z,5.97
2018-05-03T02:22:17.379Z,5.77
2018-05-03T02:24:53.339Z,4.00
2018-05-03T02:27:28.559Z,3.80
2018-05-03T02:30:03.811Z,4.47
2018-05-03T02:32:41.162Z,3.60
2018-05-03T02:35:16.721Z,3.50
2018-05-03T02:37:51.915Z,4.13
2018-05-03T02:40:27.856Z,3.90
2018-05-03T02:43:03.849Z,4.20
2018-05-03T02:45:39.146Z,4.30
2018-05-03T02:48:14.502Z,4.10
2018-05-03T02:50:49.859Z,4.23
2018-05-03T02:53:25.038Z,4.20
2018-05-03T02:56:00.309Z,4.77
2018-05-03T02:58:54.218Z,3.80
2018-05-03T03:01:53.009Z,4.10
2018-05-03T03:18:49.507Z,4.23
2018-05-03T03:21:48.257Z,3.97
2018-05-03T03:24:41.550Z,3.87
2018-05-03T03:27:40.564Z,4.20
2018-05-03T03:30:39.362Z,4.63
2018-05-03T03:33:32.427Z,3.97
2018-05-03T03:36:25.249Z,4.43
2018-05-03T03:39:18.202Z,4.23
2018-05-03T03:41:53.370Z,4.90
2018-05-03T03:44:45.556Z,4.33
2018-05-03T03:47:21.568Z,4.50
2018-05-03T03:49:56.903Z,4.23
2018-05-03T03:52:32.109Z,4.10
2018-05-03T03:55:07.279Z,4.53
2018-05-03T03:57:42.548Z,4.10
2018-05-03T04:00:17.854Z,4.53
2018-05-03T04:02:53.683Z,3.90
2018-05-03T04:05:28.840Z,4.50
2018-05-03T04:08:04.948Z,4.43
2018-05-03T04:10:40.308Z,4.20
2018-05-03T04:13:15.487Z,4.20
2018-05-03T04:15:50.862Z,4.50
2018-05-03T04:18:43.985Z,3.83
2018-05-03T04:21:37.091Z,4.60
2018-05-03T04:24:30.321Z,4.60
2018-05-03T04:27:05.598Z,5.07
2018-05-03T04:29:40.756Z,5.10
2018-05-03T04:32:16.608Z,5.33
2018-05-03T04:34:51.760Z,4.80
2018-05-03T04:37:27.087Z,6.20
2018-05-03T04:40:02.324Z,5.07
2018-05-03T04:42:37.655Z,5.33
2018-05-03T04:45:12.951Z,5.17
2018-05-03T04:47:48.223Z,4.90
2018-05-03T04:50:23.549Z,4.87
2018-05-03T04:53:00.320Z,5.13
2018-05-03T04:55:35.652Z,5.63
2018-05-03T04:58:11.854Z,5.53
2018-05-03T05:00:47.107Z,5.23
2018-05-03T05:03:22.359Z,5.30
2018-05-03T05:05:57.791Z,5.43
2018-05-03T05:08:33.751Z,4.80
2018-05-03T05:11:09.204Z,4.13
2018-05-03T05:13:44.394Z,4.70
2018-05-03T05:16:19.640Z,4.17
2018-05-03T05:18:54.941Z,5.20
2018-05-03T05:21:30.146Z,4.97
2018-05-03T05:24:05.316Z,5.10
2018-05-03T05:26:40.407Z,5.57
2018-05-03T05:29:15.740Z,4.33
2018-05-03T05:31:50.903Z,4.60
2018-05-03T05:34:26.280Z,4.83
2018-05-03T05:37:01.663Z,5.30
2018-05-03T05:39:36.932Z,4.90
2018-05-03T05:42:12.925Z,5.17
2018-05-03T05:44:47.413Z,5.43
2018-05-03T05:47:22.443Z,5.20
2018-05-03T05:49:57.630Z,5.40
2018-05-03T05:52:32.930Z,5.10
2018-05-03T05:55:08.303Z,5.33
2018-05-03T05:57:43.682Z,6.00
2018-05-03T06:00:18.975Z,5.47
2018-05-03T06:02:54.239Z,5.37
2018-05-03T06:05:30.220Z,5.70
2018-05-03T06:08:05.492Z,5.20
2018-05-03T06:10:41.493Z,6.10
2018-05-03T06:13:17.090Z,5.70
2018-05-03T06:15:52.447Z,6.20
2018-05-03T06:18:27.986Z,5.90
2018-05-03T06:21:03.979Z,5.77
2018-05-03T06:23:39.162Z,5.33
2018-05-03T06:26:14.467Z,5.13
2018-05-03T06:28:49.778Z,6.30
2018-05-03T06:31:25.180Z,6.40
2018-05-03T06:35:55.195Z,6.07
2018-05-03T06:38:32.156Z,6.00
2018-05-03T06:41:08.015Z,5.27
2018-05-03T06:43:43.982Z,6.63
2018-05-03T06:46:19.406Z,5.57
2018-05-03T06:48:55.391Z,5.67
2018-05-03T06:51:30.527Z,5.77
2018-05-03T06:54:05.721Z,6.00
2018-05-03T06:56:41.091Z,19.00
2018-05-03T06:59:16.350Z,12.63
2018-05-03T07:01:52.375Z,6.17
2018-05-03T07:04:27.816Z,5.70
2018-05-03T07:07:03.132Z,4.77
2018-05-03T07:09:38.264Z,5.00
2018-05-03T07:12:13.642Z,5.60
2018-05-03T07:14:48.774Z,6.07
2018-05-03T07:17:24.771Z,4.90
2018-05-03T07:20:00.728Z,5.23
2018-05-03T07:22:36.678Z,4.67
2018-05-03T07:25:12.639Z,4.53
2018-05-03T07:27:47.738Z,4.40
2018-05-03T07:30:23.070Z,4.07
2018-05-03T07:32:58.350Z,4.27
2018-05-03T07:35:33.489Z,3.83
2018-05-03T07:38:08.679Z,3.50
2018-05-03T07:40:44.862Z,3.77
2018-05-03T07:43:20.740Z,4.70
2018-05-03T07:45:56.060Z,4.50
2018-05-03T07:48:31.748Z,4.67
2018-05-03T07:51:07.315Z,3.83
2018-05-03T07:53:45.101Z,4.17
2018-05-03T07:56:20.326Z,5.07
2018-05-03T07:58:55.438Z,4.27
2018-05-03T08:01:30.833Z,4.50
2018-05-03T08:04:05.903Z,5.50
2018-05-03T08:06:41.346Z,5.10
2018-05-03T08:09:16.683Z,5.10
2018-05-03T08:11:52.627Z,5.40
2018-05-03T08:14:27.784Z,5.40
2018-05-03T08:17:03.797Z,5.30
2018-05-03T08:19:38.991Z,5.60
2018-05-03T08:22:14.342Z,6.20
2018-05-03T08:24:49.672Z,6.07
2018-05-03T08:27:24.977Z,6.70
2018-05-03T08:30:00.151Z,5.43
2018-05-03T08:32:36.060Z,11.30
2018-05-03T08:35:11.340Z,6.80
2018-05-03T08:37:46.533Z,6.40
2018-05-03T08:40:21.668Z,6.50
2018-05-03T08:42:56.976Z,6.23
2018-05-03T08:45:32.395Z,6.00
2018-05-03T08:48:08.459Z,5.60
2018-05-03T08:50:43.683Z,5.90
2018-05-03T08:53:19.058Z,10.80
2018-05-03T08:55:55.023Z,7.63
2018-05-03T08:58:30.103Z,6.57
2018-05-03T09:01:05.487Z,6.57
2018-05-03T09:03:40.911Z,6.30
2018-05-03T09:06:16.894Z,5.90
2018-05-03T09:08:54.227Z,6.80
2018-05-03T09:11:30.256Z,6.03
2018-05-03T09:14:06.170Z,6.10
2018-05-03T09:16:42.172Z,6.07
2018-05-03T09:19:18.460Z,6.47
2018-05-03T09:21:53.632Z,6.03
2018-05-03T09:24:28.799Z,6.10
2018-05-03T09:27:04.893Z,5.90
2018-05-03T09:29:40.062Z,5.90
2018-05-03T09:32:15.322Z,5.90
2018-05-03T09:34:50.656Z,6.03
2018-05-03T09:37:26.086Z,6.07
2018-05-03T09:40:01.227Z,5.60
2018-05-03T09:42:36.567Z,7.07
2018-05-03T09:45:12.458Z,7.23
2018-05-03T09:47:47.629Z,6.13
2018-05-03T09:50:22.927Z,6.10
2018-05-03T09:52:58.275Z,5.50
2018-05-03T09:55:33.488Z,6.77
2018-05-03T09:58:08.717Z,5.70
2018-05-03T10:00:43.979Z,7.17
2018-05-03T10:03:19.123Z,5.67
2018-05-03T10:05:54.548Z,6.57
2018-05-03T10:08:30.522Z,6.30
2018-05-03T10:11:06.472Z,6.63
2018-05-03T10:13:42.435Z,6.23
2018-05-03T10:16:18.385Z,6.00
2018-05-03T10:18:54.250Z,6.57
2018-05-03T10:21:30.256Z,5.93
2018-05-03T10:24:08.539Z,6.13
2018-05-03T10:26:43.843Z,6.93
2018-05-03T10:29:19.164Z,7.00
2018-05-03T10:31:55.255Z,6.50
2018-05-03T10:34:31.203Z,6.67
2018-05-03T10:37:06.495Z,5.70
2018-05-03T10:39:41.870Z,5.80
2018-05-03T10:42:17.103Z,6.50
2018-05-03T10:44:52.974Z,6.23
2018-05-03T10:47:28.074Z,5.70
2018-05-03T10:50:03.352Z,7.70
2018-05-03T10:52:38.688Z,6.43
2018-05-03T10:55:14.028Z,6.30
2018-05-03T10:57:49.444Z,7.40
2018-05-03T11:00:24.763Z,7.30
2018-05-03T11:03:00.700Z,7.13
2018-05-03T11:05:36.687Z,7.97
2018-05-03T11:08:12.510Z,6.63
2018-05-03T11:10:47.782Z,6.90
2018-05-03T11:13:23.023Z,7.00
2018-05-03T11:15:58.296Z,8.13
2018-05-03T11:18:33.750Z,7.20
2018-05-03T11:21:08.875Z,7.00
2018-05-03T11:23:44.231Z,7.63
2018-05-03T11:26:19.356Z,6.70
2018-05-03T11:28:55.433Z,7.47
2018-05-03T11:31:31.412Z,7.27
2018-05-03T11:34:06.706Z,7.50
2018-05-03T11:36:42.680Z,6.77
2018-05-03T11:52:21.727Z,6.47
2018-05-03T11:54:57.015Z,6.10
2018-05-03T11:57:32.336Z,5.30
2018-05-03T12:00:07.598Z,4.87
2018-05-03T12:02:42.945Z,4.53
2018-05-03T12:05:18.940Z,4.97
2018-05-03T12:07:54.168Z,3.90
2018-05-03T12:10:29.511Z,4.73
2018-05-03T12:13:04.713Z,3.43
2018-05-03T12:15:39.964Z,3.90
2018-05-03T12:18:15.403Z,3.50
2018-05-03T12:20:50.518Z,3.67
2018-05-03T12:23:25.803Z,4.70
2018-05-03T12:26:01.142Z,4.47
2018-05-03T12:28:36.360Z,4.70
2018-05-03T12:31:12.387Z,4.37
2018-05-03T12:33:47.553Z,4.20
2018-05-03T12:36:22.800Z,4.53
2018-05-03T12:38:58.184Z,4.90
2018-05-03T12:41:34.162Z,5.20
2018-05-03T12:44:09.345Z,4.20
2018-05-03T12:46:44.747Z,4.30
2018-05-03T12:49:20.088Z,3.63
2018-05-03T12:51:55.280Z,3.77
2018-05-03T12:54:31.006Z,3.53
2018-05-03T12:57:07.035Z,4.07
2018-05-03T12:59:42.581Z,3.63
2018-05-03T13:02:17.955Z,3.40
2018-05-03T13:04:53.343Z,3.20
2018-05-03T13:07:28.439Z,2.43
2018-05-03T13:10:03.804Z,3.00
2018-05-03T13:12:39.135Z,2.60
2018-05-03T13:15:14.482Z,3.20
2018-05-03T13:17:49.798Z,3.10
2018-05-03T13:20:25.072Z,3.40
2018-05-03T13:23:00.288Z,3.40
2018-05-03T13:25:36.363Z,3.07
2018-05-03T13:28:11.505Z,3.30
2018-05-03T13:30:46.724Z,4.63
2018-05-03T13:33:22.057Z,3.80
2018-05-03T13:35:57.369Z,3.90
2018-05-03T13:38:32.714Z,3.80
2018-05-03T13:41:08.004Z,3.23
2018-05-03T13:43:43.300Z,3.60
2018-05-03T13:46:18.673Z,3.73
2018-05-03T13:48:54.723Z,3.63
2018-05-03T13:51:29.936Z,3.77
2018-05-03T13:54:05.019Z,4.13
2018-05-03T13:56:40.362Z,4.50
2018-05-03T13:59:15.685Z,3.37
2018-05-03T14:01:51.034Z,3.60
2018-05-03T14:04:26.187Z,3.50
2018-05-03T14:07:01.401Z,3.43
2018-05-03T14:09:36.534Z,3.13
2018-05-03T14:12:11.820Z,4.17
2018-05-03T14:14:47.412Z,3.10
2018-05-03T14:17:22.454Z,3.60
2018-05-03T14:19:58.081Z,3.80
2018-05-03T14:22:33.270Z,3.20
2018-05-03T14:25:09.252Z,3.20
2018-05-03T14:27:44.544Z,2.97
2018-05-03T14:30:19.870Z,2.80
2018-05-03T14:32:55.136Z,3.13
2018-05-03T14:35:30.396Z,3.37
2018-05-03T14:38:05.710Z,3.43
2018-05-03T14:40:40.975Z,3.17
2018-05-03T14:43:16.409Z,3.20
2018-05-03T14:45:51.531Z,2.70
2018-05-03T14:48:26.757Z,3.10
2018-05-03T14:51:02.119Z,3.03
2018-05-03T14:53:37.481Z,3.67
2018-05-03T14:56:12.846Z,2.90
2018-05-03T14:58:48.768Z,3.00
2018-05-03T15:01:24.239Z,3.40
2018-05-03T15:03:59.551Z,3.50
2018-05-03T15:06:34.695Z,3.30
2018-05-03T15:09:09.925Z,3.10
2018-05-03T15:11:45.237Z,3.50
2018-05-03T15:14:20.503Z,3.67
2018-05-03T15:16:55.761Z,3.37
2018-05-03T15:19:31.010Z,3.90
2018-05-03T15:22:06.423Z,3.43
2018-05-03T15:24:42.498Z,3.37
2018-05-03T15:27:17.756Z,2.60
2018-05-03T15:29:53.006Z,3.37
2018-05-03T15:32:28.404Z,3.07
2018-05-03T15:35:05.858Z,3.33
2018-05-03T15:37:41.237Z,2.90
2018-05-03T15:40:16.581Z,2.60
2018-05-03T15:42:51.833Z,3.17
2018-05-03T15:45:27.167Z,3.07
2018-05-03T15:48:02.521Z,3.20
2018-05-03T15:50:37.808Z,2.67
2018-05-03T15:53:13.095Z,2.70
2018-05-03T15:55:48.422Z,3.53
2018-05-03T15:58:23.663Z,3.30
2018-05-03T16:00:59.006Z,3.53
2018-05-03T16:03:34.205Z,3.83
2018-05-03T16:06:10.127Z,3.07
2018-05-03T16:08:45.234Z,3.20
2018-05-03T16:11:20.493Z,3.40
2018-05-03T16:13:55.819Z,2.87
2018-05-03T16:16:31.088Z,3.67
2018-05-03T16:19:06.402Z,3.07
2018-05-03T16:21:41.754Z,2.57
2018-05-03T16:24:16.992Z,2.63
2018-05-03T16:26:52.349Z,3.13
2018-05-03T16:29:27.779Z,3.50
2018-05-03T16:32:03.141Z,2.70
2018-05-03T16:34:38.428Z,2.70
2018-05-03T16:37:13.725Z,3.73
2018-05-03T16:39:49.751Z,2.80
2018-05-03T16:42:25.754Z,2.70
2018-05-03T16:45:00.950Z,2.63
2018-05-03T16:47:36.214Z,3.13
2018-05-03T16:50:12.967Z,2.90
2018-05-03T16:52:48.100Z,2.70
2018-05-03T16:55:24.139Z,2.67
2018-05-03T16:58:00.424Z,2.57
2018-05-03T17:00:35.561Z,2.40
2018-05-03T17:03:10.645Z,2.90
2018-05-03T17:05:45.767Z,3.37
2018-05-03T17:08:21.073Z,3.40
2018-05-03T17:10:56.306Z,2.57
2018-05-03T17:13:31.650Z,3.37
2018-05-03T17:16:07.633Z,2.57
2018-05-03T17:18:43.767Z,2.60
2018-05-03T17:21:19.018Z,3.03
2018-05-03T17:23:54.993Z,3.07
2018-05-03T17:26:30.173Z,2.80
2018-05-03T17:29:05.940Z,3.47
2018-05-03T17:31:40.980Z,2.97
2018-05-03T17:34:16.410Z,3.07
2018-05-03T17:36:51.700Z,2.43
2018-05-03T17:39:26.849Z,3.20
2018-05-03T17:42:02.070Z,3.23
2018-05-03T17:44:37.334Z,8.53
2018-05-03T17:47:12.564Z,2.70
2018-05-03T17:49:47.783Z,3.00
2018-05-03T17:52:23.024Z,3.77
2018-05-03T17:54:59.082Z,3.50
2018-05-03T17:57:34.306Z,3.60
2018-05-03T18:00:09.791Z,3.37
2018-05-03T18:02:45.013Z,3.50
2018-05-03T18:05:20.336Z,3.80
2018-05-03T18:07:55.636Z,3.40
2018-05-03T18:10:35.490Z,3.50
2018-05-03T18:13:10.706Z,3.73
2018-05-03T18:15:46.082Z,3.73
2018-05-03T18:18:21.310Z,3.60
2018-05-03T18:20:56.490Z,3.17
2018-05-03T18:23:32.471Z,3.80
2018-05-03T18:26:09.451Z,3.83
2018-05-03T18:28:44.768Z,12.47
2018-05-03T18:31:20.837Z,4.97
2018-05-03T18:33:55.978Z,4.23
2018-05-03T18:36:31.218Z,3.80
2018-05-03T18:39:06.555Z,3.90
2018-05-03T18:41:41.826Z,3.57
2018-05-03T18:44:17.708Z,3.73
2018-05-03T18:46:53.744Z,3.80
2018-05-03T18:49:29.042Z,3.40
2018-05-03T18:52:04.145Z,3.40
2018-05-03T18:54:39.493Z,3.30
2018-05-03T18:57:14.735Z,4.63
2018-05-03T18:59:50.156Z,4.57
2018-05-03T19:02:25.431Z,3.40
2018-05-03T19:05:00.766Z,4.17
2018-05-03T19:07:36.702Z,3.73
2018-05-03T19:10:12.667Z,3.70
2018-05-03T19:12:48.445Z,4.90
2018-05-03T19:15:23.611Z,3.70
2018-05-03T19:17:59.039Z,3.43
2018-05-03T19:20:34.346Z,3.70
2018-05-03T19:23:09.583Z,3.37
2018-05-03T19:25:46.128Z,3.50
2018-05-03T19:28:21.396Z,3.27
2018-05-03T19:30:57.419Z,3.53
2018-05-03T19:33:32.580Z,2.90
2018-05-03T19:36:07.984Z,3.30
2018-05-03T19:38:43.233Z,2.30
2018-05-03T19:41:19.247Z,2.90
2018-05-03T19:43:54.473Z,2.33
2018-05-03T19:46:29.707Z,2.47
2018-05-03T19:49:05.625Z,2.47
2018-05-03T19:51:40.762Z,2.40
2018-05-03T19:54:16.029Z,2.20
2018-05-03T19:56:51.355Z,2.77
2018-05-03T19:59:26.717Z,2.17
2018-05-03T20:02:02.036Z,22.93
2018-05-03T20:04:37.982Z,1.93
2018-05-03T20:07:13.895Z,2.70
2018-05-03T20:09:48.967Z,2.00
2018-05-03T20:12:24.287Z,1.90
2018-05-03T20:14:59.535Z,2.50
2018-05-03T20:17:34.822Z,2.30
2018-05-03T20:20:10.171Z,1.67
2018-05-03T20:22:45.515Z,2.17
2018-05-03T20:25:20.723Z,2.30
2018-05-03T20:27:56.028Z,2.00
2018-05-03T20:30:31.350Z,2.20
2018-05-03T20:33:06.633Z,1.57
2018-05-03T20:35:42.579Z,1.90
2018-05-03T20:38:18.528Z,2.27
2018-05-03T20:40:54.844Z,1.97
2018-05-03T20:43:29.998Z,1.83
2018-05-03T20:46:07.276Z,1.90
2018-05-03T20:48:42.283Z,1.90
2018-05-03T20:51:17.642Z,1.57
2018-05-03T20:53:52.716Z,2.40
2018-05-03T20:56:28.751Z,2.00
2018-05-03T20:59:04.655Z,2.03
2018-05-03T21:01:40.032Z,2.10
2018-05-03T21:04:15.136Z,1.70
2018-05-03T21:06:50.573Z,2.07
2018-05-03T21:09:26.598Z,1.93
2018-05-03T21:12:02.610Z,2.10
2018-05-03T21:14:37.723Z,2.50
2018-05-03T21:17:13.052Z,1.93
2018-05-03T21:19:48.298Z,2.13
2018-05-03T21:22:24.563Z,2.30
2018-05-03T21:24:59.996Z,2.27
2018-05-03T21:27:35.223Z,2.30
2018-05-03T21:30:10.452Z,2.00
2018-05-03T21:32:45.814Z,1.90
2018-05-03T21:35:21.123Z,2.73
2018-05-03T21:37:56.407Z,2.30
2018-05-03T21:40:31.737Z,2.67
2018-05-03T21:43:07.071Z,1.80
2018-05-03T21:45:42.416Z,2.23
2018-05-03T21:48:17.864Z,2.70
2018-05-03T21:50:53.129Z,2.37
2018-05-03T21:53:28.498Z,2.30
2018-05-03T21:56:03.771Z,2.00
2018-05-03T21:58:39.126Z,2.97
2018-05-03T22:01:14.773Z,1.67
2018-05-03T22:03:50.187Z,2.10
2018-05-03T22:06:25.479Z,2.43
2018-05-03T22:09:00.639Z,2.50
2018-05-03T22:11:36.112Z,2.20
2018-05-03T22:14:11.287Z,1.77
2018-05-03T22:16:46.752Z,2.50
2018-05-03T22:19:22.837Z,2.37
2018-05-03T22:21:58.818Z,2.20
2018-05-03T22:24:34.811Z,2.53
2018-05-03T22:27:10.188Z,2.13
2018-05-03T22:29:45.510Z,2.30
2018-05-03T22:32:21.450Z,2.10
2018-05-03T22:34:56.693Z,2.03
2018-05-03T22:37:32.013Z,1.83
2018-05-03T22:40:07.306Z,2.60
2018-05-03T22:42:42.498Z,2.43
2018-05-03T22:45:17.669Z,3.00
2018-05-03T22:47:52.869Z,1.97
2018-05-03T22:50:28.104Z,2.27
2018-05-03T22:53:03.459Z,2.20
2018-05-03T22:55:38.809Z,1.90
2018-05-03T22:58:14.791Z,2.10
2018-05-03T23:00:49.969Z,1.97
2018-05-03T23:03:26.063Z,2.30
2018-05-03T23:06:01.290Z,1.50
2018-05-03T23:08:36.771Z,1.83
2018-05-03T23:11:12.806Z,2.50
2018-05-03T23:13:48.087Z,2.23
2018-05-03T23:16:24.157Z,2.47
2018-05-03T23:19:00.058Z,2.63
2018-05-03T23:21:36.960Z,2.00
2018-05-03T23:24:12.062Z,2.47
2018-05-03T23:26:47.296Z,2.20
2018-05-03T23:29:22.703Z,1.90
2018-05-03T23:31:58.630Z,1.90
2018-05-03T23:34:33.911Z,1.80
2018-05-03T23:37:09.183Z,2.07
2018-05-03T23:39:44.619Z,2.63
2018-05-03T23:42:19.977Z,2.67
2018-05-03T23:44:55.184Z,1.80
2018-05-03T23:47:30.452Z,2.50
2018-05-03T23:50:05.718Z,2.33
2018-05-03T23:52:41.026Z,2.10
2018-05-03T23:55:16.172Z,1.87
2018-05-03T23:57:51.445Z,2.20
